LFLS/GNB METAR and TAF weather

Enter ICAO airport designator
Station Type Date Time Source
LFLS METAR 2019/07/20 05:30 UTC NOAA

LFLS 200530Z AUTO VRB02KT CAVOK 19/11 Q1017 BECMG 18012KT


Station Type Date Time Source
LFLS Decoded METAR 2019/07/20 05:30 UTC NOAA

Grenoble / St. Geoirs, France (LFLS) 45-22N 005-20E 386M
Jul 20, 2019 - 01:30 AM EDT / 2019.07.20 0530 UTC
Wind: Variable at 2 MPH (2 KT):0
Visibility: greater than 7 mile(s):0
Temperature: 66 F (19 C)
Dew Point: 51 F (11 C)
Relative Humidity: 59%
Pressure (altimeter): 30.03 in. Hg (1017 hPa)
ob: LFLS 200530Z AUTO VRB02KT CAVOK 19/11 Q1017 BECMG 18012KT
cycle: 5

Station Type Date Time Source
LFLS TAF 2019/07/20 03:46 UTC NOAA

TAF LFLS 200200Z 2003/2103 27005KT CAVOK
BECMG 2007/2009 18012KT
TEMPO 2010/2018 18015G25KT PROB30
TEMPO 2015/2020 FEW090CB
BECMG 2021/2023 VRB02KT

Example: see airport list